createdAt,value
2017-02-11T00:00:06.455Z,83.73
2017-02-11T00:00:46.863Z,83.92
2017-02-11T00:01:27.250Z,83.83
2017-02-11T00:02:07.639Z,84.39
2017-02-11T00:02:48.029Z,84.01
2017-02-11T00:03:28.478Z,84.39
2017-02-11T00:04:08.874Z,84.49
2017-02-11T00:04:49.309Z,84.39
2017-02-11T00:05:29.732Z,84.01
2017-02-11T00:06:10.109Z,84.01
2017-02-11T00:06:50.509Z,84.01
2017-02-11T00:07:30.889Z,84.01
2017-02-11T00:08:11.317Z,84.16
2017-02-11T00:08:51.738Z,84.3
2017-02-11T00:09:32.147Z,84.45
2017-02-11T00:10:12.544Z,84.16
2017-02-11T00:10:53.021Z,84.2
2017-02-11T00:11:33.333Z,84.64
2017-02-11T00:12:13.751Z,84.35
2017-02-11T00:12:54.140Z,84.45
2017-02-11T00:13:35.236Z,84.82
2017-02-11T00:14:16.552Z,84.45
2017-02-11T00:14:56.992Z,84.64
2017-02-11T00:15:37.388Z,84.64
2017-02-11T00:16:17.810Z,84.82
2017-02-11T00:16:59.149Z,84.49
2017-02-11T00:17:39.549Z,84.73
2017-02-11T00:18:19.953Z,84.73
2017-02-11T00:19:00.372Z,84.92
2017-02-11T00:19:40.772Z,84.45
2017-02-11T00:20:21.201Z,84.16
2017-02-11T00:21:01.649Z,84.35
2017-02-11T00:21:42.052Z,84.92
2017-02-11T00:22:22.468Z,84.35
2017-02-11T00:23:02.959Z,84.82
2017-02-11T00:23:43.392Z,84.64
2017-02-11T00:24:23.780Z,84.45
2017-02-11T00:25:04.225Z,84.73
2017-02-11T00:25:44.640Z,84.35
2017-02-11T00:26:25.040Z,84.64
2017-02-11T00:27:06.148Z,84.82
2017-02-11T00:27:47.162Z,84.82
2017-02-11T00:28:27.546Z,85.01
2017-02-11T00:29:07.995Z,85.11
2017-02-11T00:29:48.398Z,85.15
2017-02-11T00:30:28.770Z,85.15
2017-02-11T00:31:09.200Z,84.77
2017-02-11T00:31:49.575Z,84.82
2017-02-11T00:32:30.001Z,84.96
2017-02-11T00:33:10.449Z,84.68
2017-02-11T00:33:50.800Z,84.86
2017-02-11T00:34:31.236Z,84.86
2017-02-11T00:35:11.697Z,84.82
2017-02-11T00:35:52.129Z,84.68
2017-02-11T00:36:32.539Z,85.05
2017-02-11T00:37:12.919Z,85.15
2017-02-11T00:37:53.357Z,84.86
2017-02-11T00:38:33.748Z,84.77
2017-02-11T00:39:14.152Z,85.24
2017-02-11T00:39:54.541Z,85.62
2017-02-11T00:40:34.967Z,85.24
2017-02-11T00:41:15.422Z,85.53
2017-02-11T00:41:55.837Z,85.43
2017-02-11T00:42:36.240Z,85.53
2017-02-11T00:43:16.658Z,84.86
2017-02-11T00:43:57.083Z,84.96
2017-02-11T00:44:37.525Z,84.58
2017-02-11T00:45:17.950Z,85.15
2017-02-11T00:45:58.357Z,85.05
2017-02-11T00:46:38.779Z,85.05
2017-02-11T00:47:19.144Z,85.15
2017-02-11T00:47:59.589Z,85.05
2017-02-11T00:48:39.942Z,85.05
2017-02-11T00:49:20.314Z,84.96
2017-02-11T00:50:00.744Z,84.68
2017-02-11T00:50:41.149Z,84.49
2017-02-11T00:51:21.537Z,84.86
2017-02-11T00:52:01.968Z,84.77
2017-02-11T00:52:42.374Z,84.58
2017-02-11T00:53:22.757Z,84.58
2017-02-11T00:54:03.173Z,84.68
2017-02-11T00:54:43.516Z,84.77
2017-02-11T00:55:23.967Z,84.77
2017-02-11T00:56:04.326Z,84.77
2017-02-11T00:56:44.730Z,84.39
2017-02-11T00:57:25.189Z,84.68
2017-02-11T00:58:05.570Z,84.2
2017-02-11T00:58:45.943Z,84.3
2017-02-11T00:59:26.358Z,84.49
2017-02-11T01:00:06.825Z,84.39
2017-02-11T01:00:47.200Z,84.2
2017-02-11T01:01:27.615Z,84.2
2017-02-11T01:02:08.071Z,84.2
2017-02-11T01:02:49.124Z,84.39
2017-02-11T01:03:29.527Z,84.39
2017-02-11T01:04:09.872Z,84.39
2017-02-11T01:04:50.273Z,84.39
2017-02-11T01:05:33.639Z,84.58
2017-02-11T01:06:14.074Z,84.49
2017-02-11T01:06:54.510Z,84.49
2017-02-11T01:07:34.921Z,84.49
2017-02-11T01:08:15.275Z,84.39
2017-02-11T01:08:55.697Z,84.58
2017-02-11T01:09:38.443Z,84.3
2017-02-11T01:10:18.920Z,84.39
2017-02-11T01:10:59.351Z,84.77
2017-02-11T01:11:39.707Z,84.77
2017-02-11T01:12:20.150Z,84.49
2017-02-11T01:13:00.558Z,84.86
2017-02-11T01:13:40.947Z,85.05
2017-02-11T01:14:21.410Z,85.15
2017-02-11T01:15:01.841Z,84.96
2017-02-11T01:15:42.238Z,85.15
2017-02-11T01:16:23.572Z,84.86
2017-02-11T01:17:03.989Z,85.24
2017-02-11T01:17:44.400Z,85.53
2017-02-11T01:18:25.557Z,85.24
2017-02-11T01:19:05.958Z,85.24
2017-02-11T01:19:46.349Z,85.24
2017-02-11T01:20:26.757Z,85.53
2017-02-11T01:21:07.179Z,85.34
2017-02-11T01:21:47.574Z,85.34
2017-02-11T01:22:27.983Z,84.86
2017-02-11T01:23:08.352Z,85.05
2017-02-11T01:23:48.782Z,85.05
2017-02-11T01:24:29.162Z,85.05
2017-02-11T01:25:09.556Z,85.15
2017-02-11T01:25:49.969Z,85.15
2017-02-11T01:26:30.392Z,85.05
2017-02-11T01:27:10.830Z,85.19
2017-02-11T01:27:51.250Z,85.1
2017-02-11T01:28:31.665Z,85.1
2017-02-11T01:29:12.731Z,85.1
2017-02-11T01:29:53.117Z,85.1
2017-02-11T01:30:33.528Z,84.91
2017-02-11T01:31:13.913Z,85
2017-02-11T01:31:54.308Z,84.91
2017-02-11T01:32:34.754Z,84.91
2017-02-11T01:33:15.138Z,84.72
2017-02-11T01:33:55.550Z,85
2017-02-11T01:34:35.975Z,85.1
2017-02-11T01:35:16.392Z,85.19
2017-02-11T01:35:57.443Z,85.1
2017-02-11T01:36:37.876Z,85.1
2017-02-11T01:37:18.238Z,85.1
2017-02-11T01:37:58.667Z,85.19
2017-02-11T01:38:39.077Z,85.38
2017-02-11T01:39:19.459Z,85.38
2017-02-11T01:39:59.929Z,85.19
2017-02-11T01:40:40.329Z,85.1
2017-02-11T01:41:20.731Z,85
2017-02-11T01:42:02.046Z,84.81
2017-02-11T01:42:42.472Z,84.81
2017-02-11T01:43:22.923Z,84.63
2017-02-11T01:44:03.970Z,84.53
2017-02-11T01:44:44.366Z,84.72
2017-02-11T01:45:24.760Z,85
2017-02-11T01:46:05.182Z,84.44
2017-02-11T01:46:45.600Z,84.81
2017-02-11T01:47:25.989Z,84.25
2017-02-11T01:48:06.388Z,84.34
2017-02-11T01:48:46.802Z,84.44
2017-02-11T01:49:28.137Z,84.53
2017-02-11T01:50:08.564Z,84.72
2017-02-11T01:50:48.977Z,84.44
2017-02-11T01:51:29.392Z,84.72
2017-02-11T01:52:09.818Z,84.72
2017-02-11T01:52:50.233Z,84.91
2017-02-11T01:53:30.655Z,84.72
2017-02-11T01:54:11.068Z,84.72
2017-02-11T01:54:51.501Z,84.53
2017-02-11T01:55:31.899Z,84.63
2017-02-11T01:56:12.343Z,84.91
2017-02-11T01:56:52.729Z,84.81
2017-02-11T01:57:33.108Z,84.91
2017-02-11T01:58:14.472Z,84.91
2017-02-11T01:58:54.887Z,84.81
2017-02-11T01:59:35.331Z,84.91
2017-02-11T02:00:15.695Z,84.81
2017-02-11T02:00:56.127Z,84.81
2017-02-11T02:01:38.146Z,84.91
2017-02-11T02:02:18.567Z,84.91
2017-02-11T02:02:58.984Z,84.72
2017-02-11T02:03:39.399Z,84.63
2017-02-11T02:04:19.805Z,84.72
2017-02-11T02:05:00.239Z,84.81
2017-02-11T02:05:40.623Z,84.44
2017-02-11T02:06:21.552Z,84.81
2017-02-11T02:07:02.029Z,84.91
2017-02-11T02:07:42.436Z,84.72
2017-02-11T02:08:23.578Z,84.72
2017-02-11T02:09:03.963Z,84.81
2017-02-11T02:09:44.358Z,84.81
2017-02-11T02:10:24.797Z,84.81
2017-02-11T02:11:05.161Z,84.72
2017-02-11T02:11:45.546Z,84.81
2017-02-11T02:12:25.964Z,84.72
2017-02-11T02:13:06.394Z,84.63
2017-02-11T02:13:46.814Z,84.72
2017-02-11T02:14:27.190Z,84.63
2017-02-11T02:15:07.656Z,84.72
2017-02-11T02:15:48.023Z,84.72
2017-02-11T02:16:28.471Z,84.72
2017-02-11T02:17:08.925Z,84.72
2017-02-11T02:17:49.295Z,84.81
2017-02-11T02:18:29.657Z,84.72
2017-02-11T02:19:10.119Z,84.63
2017-02-11T02:19:50.532Z,84.81
2017-02-11T02:20:30.970Z,84.81
2017-02-11T02:21:11.351Z,84.81
2017-02-11T02:21:51.762Z,84.81
2017-02-11T02:22:32.180Z,84.81
2017-02-11T02:23:13.453Z,84.91
2017-02-11T02:23:53.890Z,84.44
2017-02-11T02:24:34.277Z,84.53
2017-02-11T02:25:14.681Z,84.53
2017-02-11T02:25:55.141Z,84.91
2017-02-11T02:26:35.620Z,84.91
2017-02-11T02:27:16.056Z,84.91
2017-02-11T02:27:56.445Z,84.53
2017-02-11T02:28:36.895Z,84.91
2017-02-11T02:29:17.323Z,84.81
2017-02-11T02:29:57.748Z,84.91
2017-02-11T02:30:39.052Z,84.91
2017-02-11T02:31:19.454Z,84.91
2017-02-11T02:31:59.859Z,84.91
2017-02-11T02:32:40.962Z,84.53
2017-02-11T02:33:21.457Z,84.72
2017-02-11T02:34:01.834Z,84.72
2017-02-11T02:34:42.279Z,84.63
2017-02-11T02:35:22.695Z,84.91
2017-02-11T02:36:03.107Z,84.72
2017-02-11T02:36:43.472Z,84.53
2017-02-11T02:37:23.924Z,84.63
2017-02-11T02:38:04.297Z,84.63
2017-02-11T02:38:44.734Z,84.72
2017-02-11T02:39:25.092Z,84.72
2017-02-11T02:40:05.515Z,84.63
2017-02-11T02:40:45.918Z,84.72
2017-02-11T02:41:29.177Z,84.53
2017-02-11T02:42:09.571Z,85.1
2017-02-11T02:42:50.994Z,84.91
2017-02-11T02:43:31.408Z,84.91
2017-02-11T02:44:12.516Z,84.53
2017-02-11T02:44:52.937Z,84.72
2017-02-11T02:45:34.991Z,84.72
2017-02-11T02:46:15.382Z,84.72
2017-02-11T02:46:55.751Z,84.81
2017-02-11T02:47:36.169Z,84.72
2017-02-11T02:48:16.617Z,84.53
2017-02-11T02:48:56.983Z,84.91
2017-02-11T02:49:37.371Z,84.91
2017-02-11T02:50:18.474Z,84.53
2017-02-11T02:50:58.850Z,84.81
2017-02-11T02:51:40.181Z,84.91
2017-02-11T02:52:20.600Z,84.53
2017-02-11T02:53:01.008Z,84.53
2017-02-11T02:53:41.974Z,84.72
2017-02-11T02:54:23.092Z,84.91
2017-02-11T02:55:05.094Z,84.91
2017-02-11T02:55:45.461Z,84.81
2017-02-11T02:56:26.720Z,84.81
2017-02-11T02:57:07.107Z,84.91
2017-02-11T02:57:47.524Z,84.81
2017-02-11T02:58:27.959Z,84.81
2017-02-11T02:59:09.318Z,84.91
2017-02-11T02:59:49.751Z,84.81
2017-02-11T03:00:30.128Z,84.72
2017-02-11T03:01:10.538Z,85
2017-02-11T03:01:50.930Z,84.91
2017-02-11T03:02:31.386Z,84.53
2017-02-11T03:03:11.781Z,84.91
2017-02-11T03:03:52.461Z,84.81
2017-02-11T03:04:33.150Z,84.72
2017-02-11T03:05:14.745Z,84.44
2017-02-11T03:05:56.552Z,84.72
2017-02-11T03:06:37.112Z,84.72
2017-02-11T03:07:18.227Z,84.81
2017-02-11T03:08:01.997Z,84.72
2017-02-11T03:08:43.154Z,84.91
2017-02-11T03:09:23.555Z,84.91
2017-02-11T03:10:03.940Z,84.81
2017-02-11T03:10:44.388Z,84.91
2017-02-11T03:11:24.776Z,84.53
2017-02-11T03:12:06.150Z,84.91
2017-02-11T03:12:46.575Z,85.1
2017-02-11T06:12:37.224Z,85.57
2017-02-11T06:13:17.628Z,85.85
2017-02-11T06:13:57.997Z,85.76
2017-02-11T06:14:39.377Z,85.66
2017-02-11T06:15:19.796Z,85.47
2017-02-11T06:16:00.223Z,85.85
2017-02-11T06:16:40.632Z,85.76
2017-02-11T06:17:21.035Z,85.76
2017-02-11T06:18:01.537Z,85.85
2017-02-11T06:18:41.921Z,85.76
2017-02-11T06:19:22.313Z,85.66
2017-02-11T06:20:03.628Z,85.85
2017-02-11T06:20:44.083Z,85.76
2017-02-11T06:21:25.124Z,85.76
2017-02-11T06:22:05.527Z,85.66
2017-02-11T06:22:46.008Z,85.52
2017-02-11T06:23:26.393Z,85.47
2017-02-11T06:24:06.816Z,85.47
2017-02-11T06:24:47.236Z,85.85
2017-02-11T06:25:27.637Z,85.9
2017-02-11T06:26:08.014Z,85.52
2017-02-11T06:26:48.452Z,86.09
2017-02-11T06:27:28.850Z,85.8
2017-02-11T06:28:09.242Z,85.71
2017-02-11T06:28:49.663Z,85.14
2017-02-11T06:29:33.236Z,85.14
2017-02-11T06:30:15.243Z,85.14
2017-02-11T06:30:55.632Z,85.61
2017-02-11T06:31:36.721Z,85.71
2017-02-11T06:32:17.137Z,85.71
2017-02-11T06:32:58.446Z,85.9
2017-02-11T06:33:38.984Z,85.28
2017-02-11T06:34:20.339Z,85.28
2017-02-11T06:35:00.771Z,85.57
2017-02-11T06:35:41.143Z,85.1
2017-02-11T06:36:21.589Z,85.33
2017-02-11T06:37:02.736Z,85.33
2017-02-11T06:37:43.151Z,85.33
2017-02-11T06:38:23.535Z,85.52
2017-02-11T06:39:03.956Z,85.52
2017-02-11T06:39:44.367Z,85.9
2017-02-11T06:40:27.638Z,85.61
2017-02-11T06:41:08.942Z,85.71
2017-02-11T06:41:49.699Z,85.24
2017-02-11T06:42:30.090Z,85.52
2017-02-11T06:43:10.605Z,85.42
2017-02-11T06:43:50.960Z,85.38
2017-02-11T06:44:31.511Z,85.24
2017-02-11T06:45:12.303Z,85.61
2017-02-11T06:45:52.892Z,85.9
2017-02-11T06:46:33.285Z,85.8
2017-02-11T06:47:13.805Z,85.9
2017-02-11T06:47:54.325Z,85.61
2017-02-11T06:48:34.809Z,86.09
2017-02-11T06:49:15.238Z,85.9
2017-02-11T06:49:55.650Z,85.71
2017-02-11T06:50:36.086Z,85.9
2017-02-11T06:51:16.896Z,85.9
2017-02-11T06:52:00.774Z,85.71
2017-02-11T06:52:40.513Z,85.42
2017-02-11T06:53:20.947Z,85.24
2017-02-11T06:54:01.926Z,85.52
2017-02-11T06:54:42.396Z,85.24
2017-02-11T06:55:22.807Z,85.14
2017-02-11T06:56:03.210Z,85.14
2017-02-11T06:56:43.960Z,85.14
2017-02-11T06:57:24.269Z,85.19
2017-02-11T06:58:04.634Z,85.28
2017-02-11T06:58:45.085Z,85.61
2017-02-11T06:59:25.612Z,85.9
2017-02-11T07:00:06.078Z,85.9
2017-02-11T07:00:46.453Z,85.71
2017-02-11T07:01:26.860Z,85.42
2017-02-11T07:02:07.909Z,85.9
2017-02-11T07:02:48.281Z,85.9
2017-02-11T07:03:41.432Z,85.52
2017-02-11T07:04:24.060Z,85.33
2017-02-11T07:05:07.029Z,85.33
2017-02-11T07:05:48.145Z,85.14
2017-02-11T07:06:29.468Z,85.42
2017-02-11T07:07:09.935Z,85.52
2017-02-11T07:07:50.244Z,85.71
2017-02-11T07:08:30.713Z,85.52
2017-02-11T07:09:11.125Z,85.61
2017-02-11T07:09:51.575Z,85.42
2017-02-11T07:10:32.053Z,85.52
2017-02-11T07:11:13.124Z,85.61
2017-02-11T07:11:53.523Z,85.52
2017-02-11T07:12:33.936Z,85.61
2017-02-11T07:13:15.152Z,85.42
2017-02-11T07:13:55.547Z,85.52
2017-02-11T07:14:35.936Z,85.61
2017-02-11T07:15:17.342Z,85.42
2017-02-11T07:15:57.787Z,85.42
2017-02-11T07:16:38.195Z,85.24
2017-02-11T07:17:18.561Z,85.47
2017-02-11T07:17:59.008Z,85.33
2017-02-11T07:18:41.301Z,85.28
2017-02-11T07:19:21.757Z,85.42
2017-02-11T07:20:02.200Z,85.05
2017-02-11T07:20:42.560Z,85.19
2017-02-11T07:21:23.002Z,85.38
2017-02-11T07:22:03.445Z,85.38
2017-02-11T07:22:43.954Z,85.52
2017-02-11T07:23:24.341Z,85.19
2017-02-11T07:24:05.392Z,85.99
2017-02-11T07:24:45.835Z,85.71
2017-02-11T07:25:26.214Z,85.47
2017-02-11T07:26:06.605Z,85.8
2017-02-11T07:26:47.017Z,85.33
2017-02-11T07:27:27.443Z,85.9
2017-02-11T07:28:07.905Z,85.52
2017-02-11T07:28:49.119Z,85.24
2017-02-11T07:29:30.492Z,85.24
2017-02-11T07:30:11.556Z,85.14
2017-02-11T07:30:51.785Z,85.33
2017-02-11T07:31:32.139Z,85.52
2017-02-11T07:32:12.566Z,85.42
2017-02-11T07:32:52.998Z,85.24
2017-02-11T07:33:33.412Z,84.86
2017-02-11T07:34:14.043Z,84.77
2017-02-11T07:34:54.498Z,85.33
2017-02-11T07:35:34.900Z,85.42
2017-02-11T07:36:15.330Z,85.61
2017-02-11T07:36:55.735Z,85.33
2017-02-11T07:37:36.144Z,85.61
2017-02-11T07:38:16.567Z,85.24
2017-02-11T07:38:56.958Z,84.67
2017-02-11T07:39:37.372Z,84.77
2017-02-11T07:40:20.290Z,84.77
2017-02-11T07:41:00.693Z,84.86
2017-02-11T07:41:41.618Z,84.86
2017-02-11T07:42:22.059Z,85.05
2017-02-11T07:43:02.493Z,84.58
2017-02-11T07:43:42.867Z,84.77
2017-02-11T07:44:23.275Z,84.95
2017-02-11T07:45:03.691Z,84.58
2017-02-11T07:45:44.125Z,84.58
2017-02-11T07:46:24.580Z,84.86
2017-02-11T07:47:05.015Z,84.86
2017-02-11T07:47:45.418Z,84.95
2017-02-11T07:48:25.834Z,84.95
2017-02-11T07:49:06.234Z,84.95
2017-02-11T07:49:46.649Z,84.86
2017-02-11T07:50:27.035Z,84.86
2017-02-11T07:51:07.519Z,84.77
2017-02-11T07:51:47.840Z,84.48
2017-02-11T07:52:28.467Z,84.77
2017-02-11T07:53:08.878Z,84.67
2017-02-11T07:53:49.290Z,84.29
2017-02-11T07:54:29.744Z,84.2
2017-02-11T07:55:10.112Z,84.95
2017-02-11T07:55:50.596Z,84.95
2017-02-11T07:56:31.960Z,84.67
2017-02-11T07:57:12.358Z,84.2
2017-02-11T07:57:52.921Z,85.09
2017-02-11T07:58:33.273Z,84.9
2017-02-11T07:59:13.681Z,84.52
2017-02-11T07:59:54.026Z,84.61
2017-02-11T08:00:35.350Z,84.9
2017-02-11T08:01:15.845Z,84.81
2017-02-11T08:01:56.269Z,84.71
2017-02-11T08:02:37.038Z,85
2017-02-11T08:03:19.600Z,85
2017-02-11T08:03:59.982Z,84.61
2017-02-11T08:04:40.679Z,84.42
2017-02-11T08:05:21.378Z,84.42
2017-02-11T08:06:02.502Z,84.52
2017-02-11T08:06:43.776Z,84.61
2017-02-11T08:07:24.773Z,84.33
2017-02-11T08:08:05.215Z,84.61
2017-02-11T08:08:45.935Z,84.33
2017-02-11T08:09:26.339Z,84.33
2017-02-11T08:10:06.744Z,84.66
2017-02-11T08:10:48.023Z,84
2017-02-11T08:11:28.549Z,84.38
2017-02-11T08:12:09.751Z,84.23
2017-02-11T08:12:50.252Z,83.9
2017-02-11T08:13:30.794Z,84.09
2017-02-11T08:14:11.160Z,83.71
2017-02-11T08:14:52.006Z,83.71
2017-02-11T08:15:32.592Z,83.52
2017-02-11T08:16:13.020Z,83.81
2017-02-11T08:16:53.526Z,83.71
2017-02-11T08:17:34.133Z,83.81
2017-02-11T08:18:14.384Z,83.81
2017-02-11T08:18:55.101Z,83.81
2017-02-11T08:19:35.734Z,83.81
2017-02-11T08:20:16.735Z,83.71
2017-02-11T08:20:57.779Z,83.52
2017-02-11T08:21:38.631Z,83.62
2017-02-11T08:22:20.085Z,83.62
2017-02-11T08:23:00.351Z,83.71
2017-02-11T08:23:41.413Z,83.62
2017-02-11T08:24:22.147Z,83.56
2017-02-11T08:25:02.714Z,83.85
2017-02-11T08:25:43.601Z,83.75
2017-02-11T08:26:24.017Z,83.85
2017-02-11T08:27:04.530Z,83.85
2017-02-11T08:27:45.695Z,83.66
2017-02-11T08:28:26.670Z,83.94
2017-02-11T08:29:07.086Z,83.75
2017-02-11T08:29:47.620Z,83.75
2017-02-11T08:30:28.684Z,83.75
2017-02-11T08:31:10.025Z,83.18
2017-02-11T08:31:50.584Z,83.47
2017-02-11T08:32:31.685Z,83.28
2017-02-11T08:34:47.149Z,83.23
2017-02-11T08:35:34.154Z,83.32
2017-02-11T08:36:22.690Z,82.94
2017-02-11T08:37:08.732Z,83.23
2017-02-11T08:37:49.123Z,83.04
2017-02-11T08:38:29.533Z,82.85
2017-02-11T08:39:09.953Z,82.66
2017-02-11T08:39:50.416Z,81.99
2017-02-11T08:40:30.803Z,82.09
2017-02-11T08:41:11.788Z,81.99
2017-02-11T08:41:52.230Z,81.62
2017-02-11T08:42:32.624Z,81.94
2017-02-11T08:43:13.030Z,81.85
2017-02-11T08:43:53.434Z,82.04
2017-02-11T08:44:33.856Z,82.04
2017-02-11T08:45:14.234Z,81.85
2017-02-11T08:45:54.633Z,82.13
2017-02-11T08:46:35.047Z,82.13
2017-02-11T08:47:15.474Z,81.75
2017-02-11T08:47:56.273Z,81.66
2017-02-11T08:48:38.183Z,81.85
2017-02-11T08:49:20.115Z,81.7
2017-02-11T08:50:02.536Z,81.7
2017-02-11T08:50:43.631Z,81.7
2017-02-11T08:51:24.777Z,81.7
2017-02-11T08:52:08.060Z,81.7
2017-02-11T08:52:50.600Z,81.6
2017-02-11T08:55:08.627Z,81.45
2017-02-11T08:55:57.493Z,80.83
2017-02-11T08:56:45.302Z,80.45
2017-02-11T08:57:34.151Z,80.16
2017-02-11T08:58:22.557Z,79.54
2017-02-11T08:59:11.504Z,79.06
2017-02-11T09:00:00.013Z,79.06
2017-02-11T09:00:48.460Z,78.91
2017-02-11T09:01:37.526Z,78.63
2017-02-11T09:02:26.339Z,78.38
2017-02-11T09:03:15.036Z,78.1
2017-02-11T09:04:03.756Z,77.53
2017-02-11T09:04:52.136Z,76.39
2017-02-11T09:05:40.902Z,76.2
2017-02-11T09:06:29.232Z,76.76
2017-02-11T09:07:17.795Z,77.05
2017-02-11T09:08:06.515Z,77
2017-02-11T09:08:55.057Z,76.81
2017-02-11T09:09:43.768Z,75.85
2017-02-11T09:10:32.172Z,75.99
2017-02-11T09:11:20.543Z,75.23
2017-02-11T09:12:09.267Z,74.65
2017-02-11T09:12:58.692Z,74.56
2017-02-11T09:13:47.558Z,74.56
2017-02-11T09:14:36.978Z,74.94
2017-02-11T09:15:25.129Z,74.94
2017-02-11T09:16:11.431Z,74.18
2017-02-11T09:16:59.511Z,74.6
2017-02-11T09:17:42.302Z,74.21
2017-02-11T09:18:23.253Z,74.21
2017-02-11T09:19:04.031Z,73.74
2017-02-11T09:19:46.811Z,74.16
2017-02-11T09:20:30.895Z,72.69
2017-02-11T09:21:15.047Z,72.88
2017-02-11T09:21:57.622Z,72.88
2017-02-11T09:22:39.897Z,72.5
2017-02-11T09:23:22.949Z,72.6
2017-02-11T09:24:05.653Z,72.69
2017-02-11T09:24:50.557Z,72.6
2017-02-11T09:25:34.222Z,72.56
2017-02-11T09:26:14.616Z,72.65
2017-02-11T09:26:59.403Z,72.65
2017-02-11T09:27:42.664Z,72.56
2017-02-11T09:28:27.877Z,72.46
2017-02-11T09:30:20.613Z,72.56
2017-02-11T09:31:09.115Z,72.56
2017-02-11T09:31:58.158Z,72.97
2017-02-11T09:32:44.827Z,72.97
2017-02-11T09:33:33.742Z,72.31
2017-02-11T09:34:23.178Z,72.31
2017-02-11T09:36:42.457Z,71.01
2017-02-11T09:37:23.534Z,70.82
2017-02-11T09:38:04.991Z,70.82
2017-02-11T09:38:48.608Z,70.63
2017-02-11T09:39:30.557Z,70.63
2017-02-11T09:40:11.791Z,70.15
2017-02-11T09:40:53.408Z,70.63
2017-02-11T09:41:39.312Z,70.06
2017-02-11T09:42:20.631Z,69.87
2017-02-11T09:44:27.830Z,68.91
2017-02-11T09:45:16.818Z,69.14
2017-02-11T09:46:04.073Z,68.85
2017-02-11T09:46:45.829Z,68.09
2017-02-11T09:47:30.974Z,68.76
2017-02-11T09:49:45.598Z,68.38
2017-02-11T09:50:28.265Z,67.61
2017-02-11T09:51:08.679Z,67.99
2017-02-11T09:51:49.602Z,67.55
2017-02-11T09:52:30.617Z,67.36
2017-02-11T09:53:11.606Z,67.17
2017-02-11T09:53:56.784Z,66.98
2017-02-11T09:54:37.857Z,66.5
2017-02-11T09:55:19.211Z,66.6
2017-02-11T09:56:00.848Z,66.6
2017-02-11T09:56:41.081Z,66.02
2017-02-11T09:57:21.930Z,66.31
2017-02-11T09:58:05.937Z,66.53
2017-02-11T09:58:46.356Z,66.25
2017-02-11T09:59:28.849Z,65.96
2017-02-11T10:00:10.098Z,65.61
2017-02-11T10:00:50.476Z,65.23
2017-02-11T10:01:32.459Z,64.94
2017-02-11T10:02:12.830Z,64.59
2017-02-11T10:02:55.513Z,64.12
2017-02-11T10:03:36.532Z,63.96
2017-02-11T10:04:17.299Z,64.15
2017-02-11T10:04:58.789Z,63.03
2017-02-11T10:05:39.247Z,62.94
2017-02-11T10:06:20.261Z,62.46
2017-02-11T10:08:45.014Z,62.68
2017-02-11T10:09:26.351Z,62.3
2017-02-11T10:10:08.432Z,61.34
2017-02-11T10:10:49.619Z,60.77
2017-02-11T10:11:30.020Z,60.86
2017-02-11T10:12:13.089Z,61.15
2017-02-11T10:12:53.675Z,60.77
2017-02-11T10:13:34.124Z,60.38
2017-02-11T10:14:14.532Z,60.48
2017-02-11T10:14:55.002Z,60.06
2017-02-11T10:16:45.434Z,60.45
2017-02-11T10:17:27.534Z,60.26
2017-02-11T10:18:08.558Z,60.64
2017-02-11T10:18:49.751Z,61.02
2017-02-11T11:56:37.549Z,48.71
2017-02-11T11:57:19.109Z,48.61
2017-02-11T11:57:59.497Z,48.71
2017-02-11T11:58:40.633Z,49
2017-02-11T11:59:20.983Z,48.8
2017-02-11T12:00:01.416Z,48.8
2017-02-11T12:00:41.848Z,48.42
2017-02-11T12:01:24.216Z,48.42
2017-02-11T12:02:04.613Z,48.42
2017-02-11T12:02:45.588Z,48.04
2017-02-11T12:03:26.145Z,48.23
2017-02-11T12:04:06.527Z,49
2017-02-11T12:04:47.029Z,48.88
2017-02-11T12:05:27.441Z,48.9
2017-02-11T12:06:07.829Z,49.09
2017-02-11T12:06:49.888Z,48.9
2017-02-11T12:07:30.278Z,48.71
2017-02-11T12:08:10.767Z,48.93
2017-02-11T12:08:51.257Z,49.02
2017-02-11T12:09:31.723Z,48.54
2017-02-11T12:10:12.120Z,48.28
2017-02-11T12:10:53.384Z,48.18
2017-02-11T12:11:33.799Z,47.89
2017-02-11T12:12:15.306Z,47.89
2017-02-11T12:12:55.693Z,47.73
2017-02-11T12:13:36.182Z,47.53
2017-02-11T12:14:16.551Z,47.15
2017-02-11T12:14:56.995Z,47.34
2017-02-11T12:15:37.387Z,47.34
2017-02-11T12:16:18.435Z,47.34
2017-02-11T12:16:59.684Z,47.25
2017-02-11T12:17:40.149Z,47.37
2017-02-11T12:18:20.596Z,47.56
2017-02-11T12:19:01.837Z,46.72
2017-02-11T12:19:42.252Z,46.91
2017-02-11T12:20:22.662Z,46.53
2017-02-11T12:21:03.082Z,46.14
2017-02-11T12:21:43.502Z,46.43
2017-02-11T12:22:23.942Z,46.53
2017-02-11T12:23:04.314Z,46.14
2017-02-11T12:23:44.736Z,46.05
2017-02-11T12:24:25.126Z,45.88
2017-02-11T12:25:05.515Z,46.45
2017-02-11T12:25:45.942Z,45.59
2017-02-11T12:26:26.659Z,45.68
2017-02-11T12:27:07.038Z,45.98
2017-02-11T12:27:47.500Z,45.47
2017-02-11T12:28:27.919Z,45.95
2017-02-11T12:29:08.336Z,45.88
2017-02-11T12:29:48.774Z,45.37
2017-02-11T12:30:29.949Z,45.28
2017-02-11T12:31:10.511Z,44.51
2017-02-11T12:31:50.987Z,45.26
2017-02-11T12:32:31.395Z,44.95
2017-02-11T12:33:12.801Z,45.52
2017-02-11T12:33:53.258Z,45.59
2017-02-11T12:34:33.720Z,46.25
2017-02-11T12:35:14.804Z,46.44
2017-02-11T12:35:58.708Z,46.7
2017-02-11T12:36:40.021Z,47.08
2017-02-11T12:37:20.434Z,47.34
2017-02-11T12:38:00.837Z,47.82
2017-02-11T12:38:41.226Z,48.21
2017-02-11T12:39:22.317Z,48.59
2017-02-11T12:40:02.733Z,48.71
2017-02-11T12:40:43.183Z,48.8
2017-02-11T12:41:24.295Z,48.33
2017-02-11T12:42:05.606Z,48.23
2017-02-11T12:42:46.863Z,48.16
2017-02-11T12:43:27.253Z,47.87
2017-02-11T12:44:07.646Z,48.18
2017-02-11T12:44:48.823Z,47.51
2017-02-11T12:45:29.196Z,47.13
2017-02-11T12:46:09.640Z,46.75
2017-02-11T12:46:51.639Z,46.65
2017-02-11T12:47:32.064Z,46.55
2017-02-11T12:48:12.492Z,46.29
2017-02-11T12:48:54.463Z,46.39
2017-02-11T12:49:35.911Z,46.19
2017-02-11T12:50:17.340Z,46.1
2017-02-11T12:50:57.739Z,46.39
2017-02-11T12:51:38.336Z,45.52
2017-02-11T12:52:18.794Z,45.33
2017-02-11T12:52:59.949Z,45.81
2017-02-11T12:53:40.468Z,45.62
2017-02-11T12:54:26.295Z,45.43
2017-02-11T12:55:06.718Z,45.62
2017-02-11T12:55:47.804Z,45.81
2017-02-11T12:56:28.251Z,46.29
2017-02-11T12:57:08.668Z,46.39
2017-02-11T12:57:49.639Z,46
2017-02-11T12:58:30.759Z,45.45
2017-02-11T12:59:11.266Z,45.54
2017-02-11T12:59:53.220Z,45.26
2017-02-11T13:00:34.328Z,45.54
2017-02-11T13:01:14.751Z,44.95
2017-02-11T13:01:58.164Z,44.47
2017-02-11T13:02:40.385Z,44.37
2017-02-11T13:03:21.192Z,44.73
2017-02-11T13:04:04.144Z,45.59
2017-02-11T13:04:45.099Z,45.31
2017-02-11T13:05:27.122Z,45.69
2017-02-11T13:06:08.487Z,45.67
2017-02-11T13:06:49.293Z,45.38
2017-02-11T13:07:30.011Z,45.86
2017-02-11T13:08:11.226Z,46.22
2017-02-11T13:08:53.912Z,45.74
2017-02-11T13:09:36.093Z,46.03
2017-02-11T13:10:20.108Z,46.58
2017-02-11T13:11:01.459Z,46.96
2017-02-11T13:11:42.788Z,47.34
2017-02-11T13:12:23.991Z,47.32
2017-02-11T13:13:04.543Z,47.42
2017-02-11T13:13:46.803Z,47.61
2017-02-11T13:14:28.163Z,48.18
2017-02-11T13:15:09.247Z,48.18
2017-02-11T13:15:51.200Z,47.71
2017-02-11T13:16:33.512Z,47.71
2017-02-11T13:17:15.392Z,46.94
2017-02-11T13:17:56.530Z,47.2
2017-02-11T13:18:37.603Z,47.2
2017-02-11T13:19:21.845Z,47.47
2017-02-11T13:20:05.761Z,47.37
2017-02-11T13:20:48.080Z,47.94
2017-02-11T13:21:30.537Z,48.3
2017-02-11T13:22:13.021Z,48.49
2017-02-11T13:22:54.116Z,48.78
2017-02-11T13:23:34.614Z,49.35
2017-02-11T13:24:17.935Z,49.54
2017-02-11T13:24:58.571Z,49.23
2017-02-11T13:25:39.984Z,50.02
2017-02-11T13:26:21.547Z,50.02
2017-02-11T13:27:01.999Z,49.54
2017-02-11T13:27:42.877Z,49.26
2017-02-11T13:28:23.533Z,49.62
2017-02-11T13:29:03.992Z,49.73
2017-02-11T13:29:44.419Z,49.44
2017-02-11T13:30:25.672Z,49.16
2017-02-11T13:31:06.871Z,49.23
2017-02-11T13:31:47.332Z,49.23
2017-02-11T13:32:27.691Z,49.52
2017-02-11T13:33:08.139Z,49.42
2017-02-11T13:33:49.439Z,49.21
2017-02-11T13:34:29.754Z,49.3
2017-02-11T13:35:10.228Z,50.16
2017-02-11T13:35:50.684Z,49.78
2017-02-11T13:36:31.076Z,49.78
2017-02-11T13:37:11.499Z,50.07
2017-02-11T13:37:51.958Z,50.13
2017-02-11T13:38:32.421Z,50.71
2017-02-11T13:39:14.257Z,50.32
2017-02-11T13:39:58.693Z,50.99
2017-02-11T13:40:39.257Z,50.9
2017-02-11T13:41:19.714Z,51.18